createdAt,value
2018-04-27T00:00:39.536Z,2.47
2018-04-27T00:03:08.413Z,2.70
2018-04-27T00:05:36.550Z,2.50
2018-04-27T00:08:04.719Z,2.85
2018-04-27T00:10:32.832Z,2.40
2018-04-27T00:13:00.936Z,2.80
2018-04-27T00:15:29.053Z,2.55
2018-04-27T00:17:57.161Z,2.75
2018-04-27T00:20:25.268Z,2.75
2018-04-27T00:22:53.405Z,3.03
2018-04-27T00:25:21.565Z,2.80
2018-04-27T00:27:49.689Z,2.80
2018-04-27T00:30:17.805Z,2.58
2018-04-27T00:32:45.904Z,2.50
2018-04-27T00:35:14.023Z,2.80
2018-04-27T00:37:42.116Z,3.00
2018-04-27T00:40:11.022Z,2.70
2018-04-27T00:42:39.901Z,2.90
2018-04-27T00:45:08.002Z,2.85
2018-04-27T00:47:36.875Z,2.78
2018-04-27T00:50:05.752Z,2.67
2018-04-27T00:52:51.792Z,2.70
2018-04-27T00:55:20.491Z,2.92
2018-04-27T00:57:48.623Z,2.50
2018-04-27T01:00:17.490Z,2.25
2018-04-27T01:02:45.595Z,2.72
2018-04-27T01:05:13.706Z,2.92
2018-04-27T01:07:41.816Z,2.55
2018-04-27T01:10:09.933Z,2.55
2018-04-27T01:12:38.802Z,2.72
2018-04-27T01:15:07.708Z,2.45
2018-04-27T01:17:35.823Z,2.65
2018-04-27T01:20:03.941Z,2.45
2018-04-27T01:22:32.056Z,2.72
2018-04-27T01:25:00.939Z,2.42
2018-04-27T01:27:29.821Z,2.50
2018-04-27T01:29:57.934Z,2.58
2018-04-27T01:32:26.102Z,3.00
2018-04-27T01:34:54.975Z,2.60
2018-04-27T01:37:23.853Z,2.53
2018-04-27T01:39:51.969Z,2.40
2018-04-27T01:42:20.839Z,2.80
2018-04-27T01:44:48.973Z,3.03
2018-04-27T01:47:17.078Z,2.65
2018-04-27T01:49:45.188Z,3.00
2018-04-27T01:52:14.069Z,2.70
2018-04-27T01:54:42.293Z,2.65
2018-04-27T01:57:10.431Z,3.00
2018-04-27T01:59:38.562Z,3.10
2018-04-27T02:02:06.674Z,2.97
2018-04-27T02:04:34.788Z,2.80
2018-04-27T02:07:02.893Z,2.90
2018-04-27T02:09:31.011Z,2.62
2018-04-27T02:12:00.621Z,2.33
2018-04-27T02:14:28.773Z,2.87
2018-04-27T02:16:56.901Z,2.53
2018-04-27T02:19:25.760Z,2.87
2018-04-27T02:21:53.895Z,2.90
2018-04-27T02:24:22.001Z,2.92
2018-04-27T02:26:50.124Z,2.50
2018-04-27T02:29:19.003Z,2.37
2018-04-27T02:31:47.119Z,2.60
2018-04-27T02:34:15.261Z,2.73
2018-04-27T02:36:43.363Z,2.55
2018-04-27T02:39:11.483Z,2.50
2018-04-27T02:41:39.601Z,2.80
2018-04-27T02:44:08.501Z,2.55
2018-04-27T02:46:37.400Z,2.70
2018-04-27T02:49:06.273Z,2.87
2018-04-27T02:51:34.364Z,2.70
2018-04-27T02:54:02.480Z,2.40
2018-04-27T02:56:30.590Z,2.90
2018-04-27T02:58:58.732Z,2.33
2018-04-27T03:01:26.836Z,2.50
2018-04-27T03:03:54.949Z,2.42
2018-04-27T03:06:23.850Z,2.33
2018-04-27T03:08:52.742Z,2.87
2018-04-27T03:11:21.613Z,2.10
2018-04-27T03:13:49.740Z,2.40
2018-04-27T03:16:17.843Z,2.73
2018-04-27T03:18:45.971Z,2.90
2018-04-27T03:21:14.882Z,2.40
2018-04-27T03:23:43.030Z,2.08
2018-04-27T03:26:11.131Z,2.30
2018-04-27T03:28:39.241Z,2.67
2018-04-27T03:31:07.373Z,2.22
2018-04-27T03:33:36.247Z,2.60
2018-04-27T03:36:04.350Z,2.22
2018-04-27T03:38:33.224Z,2.47
2018-04-27T03:41:02.102Z,2.33
2018-04-27T03:43:30.213Z,2.45
2018-04-27T03:45:59.079Z,2.22
2018-04-27T03:48:27.176Z,2.67
2018-04-27T03:50:56.198Z,2.40
2018-04-27T03:53:24.293Z,1.77
2018-04-27T03:55:52.393Z,2.20
2018-04-27T03:58:20.508Z,2.15
2018-04-27T04:01:07.313Z,2.50
2018-04-27T04:03:54.133Z,2.33
2018-04-27T04:06:22.261Z,2.40
2018-04-27T04:08:50.407Z,2.12
2018-04-27T04:11:18.518Z,2.20
2018-04-27T04:13:46.621Z,1.92
2018-04-27T04:16:15.499Z,2.12
2018-04-27T04:18:43.612Z,2.05
2018-04-27T04:21:11.726Z,2.12
2018-04-27T04:23:39.825Z,2.30
2018-04-27T04:26:07.933Z,1.90
2018-04-27T04:28:36.801Z,1.80
2018-04-27T04:31:04.917Z,2.00
2018-04-27T04:33:33.035Z,1.80
2018-04-27T04:36:01.164Z,1.87
2018-04-27T04:38:29.273Z,2.17
2018-04-27T04:40:57.397Z,2.10
2018-04-27T04:43:26.282Z,2.33
2018-04-27T04:45:54.425Z,2.40
2018-04-27T04:48:22.551Z,2.40
2018-04-27T04:50:51.468Z,1.73
2018-04-27T04:53:19.577Z,2.42
2018-04-27T04:55:47.721Z,1.90
2018-04-27T04:58:15.835Z,2.00
2018-04-27T05:00:43.940Z,1.53
2018-04-27T05:03:12.069Z,1.57
2018-04-27T05:05:40.175Z,1.73
2018-04-27T05:08:08.313Z,1.80
2018-04-27T05:10:36.443Z,1.77
2018-04-27T05:13:04.564Z,1.87
2018-04-27T05:15:32.671Z,1.57
2018-04-27T05:18:36.165Z,1.62
2018-04-27T05:21:04.278Z,1.37
2018-04-27T05:23:33.156Z,1.57
2018-04-27T05:26:02.095Z,1.50
2018-04-27T05:28:30.218Z,1.30
2018-04-27T05:31:16.312Z,1.35
2018-04-27T05:33:44.415Z,1.50
2018-04-27T05:36:13.270Z,1.37
2018-04-27T05:38:41.507Z,1.53
2018-04-27T05:41:09.629Z,1.15
2018-04-27T05:43:37.744Z,1.35
2018-04-27T05:46:06.616Z,1.30
2018-04-27T05:48:34.743Z,1.20
2018-04-27T05:51:02.854Z,1.42
2018-04-27T05:53:30.986Z,1.70
2018-04-27T05:55:59.918Z,1.70
2018-04-27T05:58:28.270Z,1.60
2018-04-27T06:00:56.382Z,1.50
2018-04-27T06:03:24.553Z,1.40
2018-04-27T06:05:52.676Z,1.30
2018-04-27T06:08:21.612Z,1.37
2018-04-27T06:10:49.787Z,1.10
2018-04-27T06:13:17.911Z,1.50
2018-04-27T06:15:46.021Z,1.42
2018-04-27T06:18:14.146Z,1.52
2018-04-27T06:20:42.254Z,1.40
2018-04-27T06:23:11.145Z,1.20
2018-04-27T06:25:39.378Z,1.30
2018-04-27T06:28:07.409Z,1.33
2018-04-27T06:30:36.300Z,1.27
2018-04-27T06:33:05.221Z,1.65
2018-04-27T06:35:33.324Z,1.35
2018-04-27T06:38:01.449Z,1.15
2018-04-27T06:40:30.331Z,1.25
2018-04-27T06:42:59.228Z,1.23
2018-04-27T06:45:27.342Z,1.25
2018-04-27T06:47:55.476Z,1.30
2018-04-27T06:50:23.664Z,1.50
2018-04-27T06:52:52.596Z,1.50
2018-04-27T06:55:20.735Z,1.15
2018-04-27T06:57:49.623Z,1.62
2018-04-27T07:00:17.777Z,1.40
2018-04-27T07:02:45.882Z,1.27
2018-04-27T07:05:14.053Z,1.20
2018-04-27T07:07:42.152Z,1.15
2018-04-27T07:10:11.177Z,1.35
2018-04-27T07:12:39.295Z,1.52
2018-04-27T07:15:07.419Z,1.23
2018-04-27T07:17:35.523Z,1.40
2018-04-27T07:20:03.648Z,1.20
2018-04-27T07:22:32.523Z,1.48
2018-04-27T07:25:00.639Z,1.10
2018-04-27T07:27:28.771Z,1.25
2018-04-27T07:29:56.880Z,1.30
2018-04-27T07:32:25.736Z,1.08
2018-04-27T07:34:53.879Z,1.25
2018-04-27T07:37:21.986Z,1.45
2018-04-27T07:39:50.101Z,1.52
2018-04-27T07:42:19.031Z,1.20
2018-04-27T07:44:47.157Z,1.50
2018-04-27T07:47:15.263Z,1.05
2018-04-27T07:49:44.161Z,1.30
2018-04-27T07:52:13.072Z,1.30
2018-04-27T07:54:41.193Z,1.40
2018-04-27T07:57:09.313Z,1.37
2018-04-27T07:59:38.185Z,1.62
2018-04-27T08:02:06.333Z,1.33
2018-04-27T08:04:34.536Z,1.50
2018-04-27T08:07:02.638Z,1.48
2018-04-27T08:09:31.545Z,1.37
2018-04-27T08:11:59.730Z,1.60
2018-04-27T08:14:27.894Z,1.80
2018-04-27T08:16:56.753Z,1.70
2018-04-27T08:19:24.880Z,1.27
2018-04-27T08:21:53.008Z,1.20
2018-04-27T08:24:21.173Z,1.60
2018-04-27T08:26:49.279Z,1.60
2018-04-27T08:29:18.144Z,1.98
2018-04-27T08:31:46.386Z,1.50
2018-04-27T08:34:14.547Z,2.03
2018-04-27T08:36:42.671Z,1.75
2018-04-27T08:39:10.780Z,2.15
2018-04-27T08:41:38.906Z,3.05
2018-04-27T08:44:07.017Z,2.70
2018-04-27T08:46:35.145Z,2.78
2018-04-27T08:49:03.307Z,2.45
2018-04-27T08:51:32.200Z,2.37
2018-04-27T08:54:01.093Z,2.87
2018-04-27T08:56:29.984Z,2.62
2018-04-27T08:58:58.868Z,2.47
2018-04-27T09:01:26.992Z,2.62
2018-04-27T09:03:55.174Z,3.03
2018-04-27T09:06:23.332Z,3.03
2018-04-27T09:08:51.413Z,2.70
2018-04-27T09:11:19.537Z,1.98
2018-04-27T09:13:47.658Z,2.37
2018-04-27T09:16:16.637Z,2.12
2018-04-27T09:18:44.668Z,2.50
2018-04-27T09:21:12.933Z,2.40
2018-04-27T09:23:41.071Z,1.83
2018-04-27T09:26:09.952Z,1.80
2018-04-27T09:28:38.828Z,2.20
2018-04-27T09:31:06.944Z,1.70
2018-04-27T09:33:35.826Z,1.65
2018-04-27T09:36:03.954Z,1.90
2018-04-27T09:38:32.075Z,2.58
2018-04-27T09:41:00.198Z,1.33
2018-04-27T09:43:28.317Z,1.73
2018-04-27T09:45:56.447Z,1.42
2018-04-27T09:48:24.550Z,1.80
2018-04-27T09:50:52.669Z,1.77
2018-04-27T09:53:21.602Z,1.73
2018-04-27T09:55:49.710Z,1.60
2018-04-27T09:58:17.830Z,1.17
2018-04-27T10:00:46.742Z,1.60
2018-04-27T10:03:14.862Z,1.60
2018-04-27T10:05:42.968Z,1.95
2018-04-27T10:08:11.108Z,1.37
2018-04-27T10:10:39.230Z,1.33
2018-04-27T10:13:08.126Z,1.25
2018-04-27T10:15:37.061Z,1.80
2018-04-27T10:18:05.193Z,1.62
2018-04-27T10:20:34.091Z,1.58
2018-04-27T10:23:02.214Z,1.33
2018-04-27T10:25:30.308Z,1.73
2018-04-27T10:27:58.437Z,1.62
2018-04-27T10:30:27.359Z,1.40
2018-04-27T10:32:55.478Z,1.10
2018-04-27T10:35:23.573Z,1.08
2018-04-27T10:37:52.461Z,1.20
2018-04-27T10:40:20.582Z,1.70
2018-04-27T10:42:48.695Z,1.80
2018-04-27T10:45:16.813Z,1.40
2018-04-27T10:47:45.755Z,0.93
2018-04-27T10:50:13.946Z,1.33
2018-04-27T10:52:42.781Z,1.15
2018-04-27T10:55:11.657Z,1.40
2018-04-27T10:57:40.552Z,0.90
2018-04-27T11:00:09.715Z,0.68
2018-04-27T11:02:37.970Z,1.10
2018-04-27T11:05:06.078Z,1.00
2018-04-27T11:07:34.199Z,0.73
2018-04-27T11:10:02.311Z,0.95
2018-04-27T11:12:30.440Z,0.93
2018-04-27T11:14:58.563Z,1.20
2018-04-27T11:17:26.709Z,1.12
2018-04-27T11:19:55.587Z,0.95
2018-04-27T11:22:23.821Z,0.95
2018-04-27T11:24:51.926Z,0.90
2018-04-27T11:27:20.071Z,0.90
2018-04-27T11:29:48.574Z,1.00
2018-04-27T11:32:16.682Z,0.82
2018-04-27T11:34:45.633Z,1.17
2018-04-27T11:37:13.739Z,0.90
2018-04-27T11:39:41.866Z,1.15
2018-04-27T11:42:09.983Z,1.37
2018-04-27T11:44:38.142Z,0.73
2018-04-27T11:47:06.245Z,1.08
2018-04-27T11:49:34.362Z,1.30
2018-04-27T11:52:03.231Z,0.98
2018-04-27T11:54:31.358Z,1.20
2018-04-27T11:56:59.534Z,1.10
2018-04-27T11:59:27.664Z,1.05
2018-04-27T12:01:55.890Z,1.20
2018-04-27T12:04:24.010Z,1.10
2018-04-27T12:06:52.128Z,1.05
2018-04-27T12:09:21.021Z,0.70
2018-04-27T12:11:50.017Z,1.12
2018-04-27T12:14:18.914Z,1.08
2018-04-27T12:16:47.795Z,1.10
2018-04-27T12:19:16.855Z,1.05
2018-04-27T12:21:44.966Z,1.40
2018-04-27T12:24:13.853Z,1.20
2018-04-27T12:26:42.746Z,1.17
2018-04-27T12:29:10.868Z,1.27
2018-04-27T12:31:39.097Z,0.93
2018-04-27T12:34:07.184Z,1.30
2018-04-27T12:36:36.070Z,1.30
2018-04-27T12:39:04.980Z,1.25
2018-04-27T12:41:33.856Z,1.02
2018-04-27T12:44:01.976Z,1.02
2018-04-27T12:46:30.100Z,1.20
2018-04-27T12:48:58.280Z,1.10
2018-04-27T12:51:26.392Z,1.40
2018-04-27T12:53:55.269Z,1.08
2018-04-27T12:56:24.128Z,0.95
2018-04-27T12:58:52.268Z,1.48
2018-04-27T13:01:20.386Z,1.12
2018-04-27T13:03:48.510Z,1.10
2018-04-27T13:06:17.388Z,1.10
2018-04-27T13:08:45.528Z,0.98
2018-04-27T13:11:13.657Z,0.93
2018-04-27T13:13:42.553Z,1.65
2018-04-27T13:16:11.443Z,1.08
2018-04-27T13:18:39.665Z,1.20
2018-04-27T13:21:07.844Z,1.17
2018-04-27T13:23:35.953Z,0.80
2018-04-27T13:26:04.076Z,1.10
2018-04-27T13:28:33.818Z,1.00
2018-04-27T13:31:01.963Z,1.00
2018-04-27T13:33:30.855Z,0.80
2018-04-27T13:35:59.737Z,0.88
2018-04-27T13:38:28.610Z,0.80
2018-04-27T13:40:56.753Z,0.60
2018-04-27T13:43:24.866Z,0.93
2018-04-27T13:45:52.982Z,0.80
2018-04-27T13:48:21.901Z,0.88
2018-04-27T13:50:50.030Z,0.55
2018-04-27T13:53:18.952Z,0.80
2018-04-27T13:55:47.098Z,1.27
2018-04-27T13:58:15.243Z,1.00
2018-04-27T14:00:43.374Z,1.15
2018-04-27T14:03:12.263Z,1.00
2018-04-27T14:05:41.184Z,1.40
2018-04-27T14:08:09.303Z,1.23
2018-04-27T14:10:37.426Z,1.37
2018-04-27T14:13:06.380Z,1.08
2018-04-27T14:15:34.507Z,1.30
2018-04-27T14:18:03.431Z,1.35
2018-04-27T14:20:31.573Z,1.00
2018-04-27T14:23:01.289Z,1.40
2018-04-27T14:25:29.413Z,1.70
2018-04-27T14:27:57.536Z,1.37
2018-04-27T14:30:26.447Z,1.40
2018-04-27T14:32:54.570Z,1.85
2018-04-27T14:35:22.680Z,1.67
2018-04-27T14:37:51.595Z,1.40
2018-04-27T14:40:19.710Z,1.80
2018-04-27T14:42:47.875Z,1.40
2018-04-27T14:45:15.992Z,1.27
2018-04-27T14:47:44.149Z,1.40
2018-04-27T14:50:12.271Z,1.33
2018-04-27T14:52:40.439Z,1.73
2018-04-27T14:55:09.306Z,1.83
2018-04-27T14:57:37.453Z,1.60
2018-04-27T15:00:05.581Z,1.85
2018-04-27T15:02:34.469Z,1.70
2018-04-27T15:05:02.586Z,1.67
2018-04-27T15:07:30.729Z,1.60
2018-04-27T15:09:58.849Z,2.12
2018-04-27T15:12:27.128Z,1.90
2018-04-27T15:14:55.242Z,2.05
2018-04-27T15:17:23.359Z,1.80
2018-04-27T15:19:52.288Z,3.37
2018-04-27T15:22:20.543Z,2.20
2018-04-27T15:24:49.605Z,2.92
2018-04-27T15:27:17.730Z,2.35
2018-04-27T15:29:45.871Z,1.90
2018-04-27T15:32:15.337Z,1.80
2018-04-27T15:34:43.567Z,1.70
2018-04-27T15:37:12.458Z,1.55
2018-04-27T15:39:40.629Z,1.83
2018-04-27T15:42:08.865Z,1.60
2018-04-27T15:44:38.523Z,1.48
2018-04-27T15:47:06.723Z,1.92
2018-04-27T15:49:35.826Z,2.00
2018-04-27T15:52:04.908Z,1.58
2018-04-27T15:54:33.803Z,1.70
2018-04-27T15:57:01.916Z,1.27
2018-04-27T15:59:30.033Z,1.25
2018-04-27T16:01:58.164Z,1.50
2018-04-27T16:04:26.304Z,1.37
2018-04-27T16:06:54.424Z,1.40
2018-04-27T16:09:22.581Z,1.10
2018-04-27T16:11:50.689Z,1.55
2018-04-27T16:14:18.831Z,1.40
2018-04-27T16:16:47.712Z,1.27
2018-04-27T16:19:16.651Z,1.23
2018-04-27T16:21:44.782Z,1.00
2018-04-27T16:24:12.901Z,1.12
2018-04-27T16:26:41.029Z,1.02
2018-04-27T16:29:09.146Z,0.85
2018-04-27T16:31:38.127Z,1.83
2018-04-27T16:34:07.031Z,1.45
2018-04-27T16:36:35.912Z,1.23
2018-04-27T16:39:04.808Z,1.60
2018-04-27T16:41:33.679Z,1.70
2018-04-27T16:44:01.795Z,1.62
2018-04-27T16:46:30.705Z,1.20
2018-04-27T16:48:58.822Z,1.33
2018-04-27T16:51:26.951Z,1.00
2018-04-27T16:53:55.070Z,1.10
2018-04-27T16:56:23.214Z,0.95
2018-04-27T16:58:51.437Z,0.93
2018-04-27T17:01:19.557Z,0.70
2018-04-27T17:03:48.473Z,0.95
2018-04-27T17:06:16.579Z,1.02
2018-04-27T17:08:44.752Z,0.98
2018-04-27T17:11:12.884Z,1.00
2018-04-27T17:13:41.768Z,1.20
2018-04-27T17:16:10.677Z,1.00
2018-04-27T17:18:39.542Z,0.88
2018-04-27T17:21:07.675Z,1.20
2018-04-27T17:23:35.802Z,1.12
2018-04-27T17:26:03.991Z,1.17
2018-04-27T17:28:32.915Z,1.08
2018-04-27T17:31:01.864Z,0.88
2018-04-27T17:33:29.985Z,0.88
2018-04-27T17:35:58.093Z,0.93
2018-04-27T17:38:26.195Z,0.93
2018-04-27T17:40:54.322Z,1.27
2018-04-27T17:43:22.546Z,0.80
2018-04-27T17:45:50.752Z,0.93
2018-04-27T17:48:18.822Z,0.70
2018-04-27T17:50:47.721Z,1.02
2018-04-27T17:53:15.886Z,0.70
2018-04-27T17:55:44.035Z,0.90
2018-04-27T17:58:12.144Z,1.10
2018-04-27T18:00:40.274Z,1.20
2018-04-27T18:03:08.393Z,1.20
2018-04-27T18:05:36.530Z,1.00
2018-04-27T18:08:04.638Z,0.90
2018-04-27T18:10:32.782Z,1.10
2018-04-27T18:13:00.887Z,1.02
2018-04-27T18:15:29.030Z,1.10
2018-04-27T18:17:57.143Z,1.20
2018-04-27T18:20:25.298Z,1.00
2018-04-27T18:22:53.583Z,1.30
2018-04-27T18:25:22.436Z,1.30
2018-04-27T18:27:51.402Z,1.20
2018-04-27T18:30:19.492Z,1.62
2018-04-27T18:32:48.411Z,1.30
2018-04-27T18:35:16.619Z,1.17
2018-04-27T18:37:44.739Z,1.50
2018-04-27T18:40:12.861Z,1.80
2018-04-27T18:42:41.059Z,1.52
2018-04-27T18:45:09.216Z,1.77
2018-04-27T18:47:37.375Z,1.58
2018-04-27T18:50:05.539Z,1.30
2018-04-27T18:52:34.457Z,1.52
2018-04-27T18:55:02.624Z,1.75
2018-04-27T18:57:30.783Z,1.45
2018-04-27T18:59:58.954Z,1.55
2018-04-27T19:02:27.134Z,1.70
2018-04-27T19:04:55.265Z,1.40
2018-04-27T19:07:23.475Z,1.30
2018-04-27T19:09:51.614Z,1.70
2018-04-27T19:12:19.781Z,1.75
2018-04-27T19:14:47.904Z,1.40
2018-04-27T19:17:16.040Z,2.25
2018-04-27T19:19:44.170Z,2.03
2018-04-27T19:22:13.003Z,1.87
2018-04-27T19:24:44.053Z,1.80
2018-04-27T19:27:12.164Z,1.80
2018-04-27T19:29:40.288Z,1.95
2018-04-27T19:32:09.184Z,1.70
2018-04-27T19:34:38.059Z,1.58
2018-04-27T19:37:06.198Z,1.98
2018-04-27T19:39:34.363Z,2.03
2018-04-27T19:42:02.489Z,1.87
2018-04-27T19:44:31.357Z,1.98
2018-04-27T19:47:00.475Z,1.85
2018-04-27T19:49:28.596Z,1.87
2018-04-27T19:51:56.710Z,1.60
2018-04-27T19:54:24.842Z,1.85
2018-04-27T19:56:58.518Z,1.80
2018-04-27T19:59:26.641Z,2.00
2018-04-27T20:01:54.750Z,2.40
2018-04-27T20:04:22.894Z,1.73
2018-04-27T20:06:51.016Z,2.10
2018-04-27T20:09:19.160Z,1.83
2018-04-27T20:11:47.289Z,1.90
2018-04-27T20:14:39.135Z,1.80
2018-04-27T20:17:07.268Z,1.58
2018-04-27T20:19:42.912Z,1.77
2018-04-27T20:22:25.578Z,1.90
2018-04-27T20:24:58.303Z,2.00
2018-04-27T20:27:38.621Z,2.40
2018-04-27T20:30:21.643Z,1.98
2018-04-27T20:32:49.769Z,1.95
2018-04-27T20:35:18.774Z,2.28
2018-04-27T20:37:51.523Z,2.35
2018-04-27T20:40:19.705Z,2.47
2018-04-27T20:42:47.826Z,2.30
2018-04-27T20:45:26.529Z,2.30
2018-04-27T20:47:54.644Z,2.30
2018-04-27T20:50:26.393Z,2.40
2018-04-27T20:52:59.011Z,2.78
2018-04-27T20:55:27.811Z,2.35
2018-04-27T20:57:55.953Z,2.50
2018-04-27T21:00:25.654Z,2.35
2018-04-27T21:02:54.533Z,2.40
2018-04-27T21:05:24.248Z,2.87
2018-04-27T21:07:53.173Z,2.25
2018-04-27T21:10:21.285Z,2.60
2018-04-27T21:12:57.971Z,2.80
2018-04-27T21:15:26.090Z,2.37
2018-04-27T21:17:54.226Z,2.55
2018-04-27T21:20:22.344Z,2.53
2018-04-27T21:22:50.449Z,2.70
2018-04-27T21:25:29.898Z,2.80
2018-04-27T21:27:58.005Z,2.75
2018-04-27T21:30:26.129Z,2.92
2018-04-27T21:32:59.945Z,3.37
2018-04-27T21:35:34.985Z,3.17
2018-04-27T21:41:37.744Z,2.67
2018-04-27T21:44:10.346Z,2.85
2018-04-27T21:46:39.272Z,2.65
2018-04-27T21:49:10.053Z,2.50
2018-04-27T21:51:39.055Z,2.50
2018-04-27T21:54:18.978Z,2.80
2018-04-27T21:57:07.362Z,2.75
2018-04-27T21:59:55.935Z,3.03
2018-04-27T22:06:07.913Z,2.85
2018-04-27T22:08:45.919Z,2.87
2018-04-27T22:11:25.500Z,3.08
2018-04-27T22:13:53.615Z,3.03
2018-04-27T22:16:29.916Z,3.20
2018-04-27T22:18:58.839Z,2.80
2018-04-27T22:21:26.946Z,2.83
2018-04-27T22:24:09.107Z,2.85
2018-04-27T22:26:43.567Z,3.22
2018-04-27T22:29:29.109Z,3.22
2018-04-27T22:32:00.125Z,2.97
2018-04-27T22:34:30.994Z,3.42
2018-04-27T22:36:59.097Z,3.15
2018-04-27T22:39:40.877Z,3.60
2018-04-27T22:42:20.681Z,3.67
2018-04-27T22:44:56.363Z,3.62
2018-04-27T22:50:57.325Z,3.42
2018-04-27T22:53:29.934Z,3.45
2018-04-27T22:55:58.848Z,3.67
2018-04-27T22:58:26.953Z,3.72
2018-04-27T23:01:06.467Z,3.55
2018-04-27T23:03:36.410Z,3.85
2018-04-27T23:06:07.352Z,3.33
2018-04-27T23:08:35.468Z,3.53
2018-04-27T23:11:25.046Z,3.70
2018-04-27T23:16:58.533Z,3.65
2018-04-27T23:19:27.580Z,3.72
2018-04-27T23:22:01.464Z,3.60
2018-04-27T23:24:37.832Z,3.45
2018-04-27T23:27:05.971Z,3.47
2018-04-27T23:29:34.078Z,3.33
2018-04-27T23:32:02.981Z,3.10
2018-04-27T23:34:31.865Z,3.83
2018-04-27T23:37:00.745Z,3.85
2018-04-27T23:39:28.852Z,3.05
2018-04-27T23:41:56.975Z,3.60
2018-04-27T23:44:25.109Z,3.28
2018-04-27T23:46:53.231Z,3.70
2018-04-27T23:49:21.413Z,3.45
2018-04-27T23:51:50.373Z,3.35
2018-04-27T23:54:18.517Z,3.37
2018-04-27T23:56:51.022Z,3.17
2018-04-27T23:59:20.627Z,3.47
